sensor_id;sensor_type;location;lat;lon;timestamp;P1;durP1;ratioP1;P2;durP2;ratioP2
34585;SDS011;20816;50.950;11.108;2024-02-28T00:02:02;17.13;;;6.53;;
34585;SDS011;20816;50.950;11.108;2024-02-28T00:04:29;18.73;;;7.43;;
34585;SDS011;20816;50.950;11.108;2024-02-28T00:06:56;16.73;;;8.23;;
34585;SDS011;20816;50.950;11.108;2024-02-28T00:09:23;19.43;;;5.70;;
34585;SDS011;20816;50.950;11.108;2024-02-28T00:11:50;12.20;;;5.87;;
34585;SDS011;20816;50.950;11.108;2024-02-28T00:14:16;16.90;;;6.20;;
34585;SDS011;20816;50.950;11.108;2024-02-28T00:16:44;16.00;;;6.20;;
34585;SDS011;20816;50.950;11.108;2024-02-28T00:19:12;14.20;;;6.83;;
34585;SDS011;20816;50.950;11.108;2024-02-28T00:21:39;17.47;;;6.87;;
34585;SDS011;20816;50.950;11.108;2024-02-28T00:24:07;13.10;;;8.03;;
34585;SDS011;20816;50.950;11.108;2024-02-28T00:26:35;13.17;;;6.07;;
34585;SDS011;20816;50.950;11.108;2024-02-28T00:29:02;14.87;;;6.77;;
34585;SDS011;20816;50.950;11.108;2024-02-28T00:31:29;16.13;;;6.57;;
34585;SDS011;20816;50.950;11.108;2024-02-28T00:33:56;13.00;;;6.47;;
34585;SDS011;20816;50.950;11.108;2024-02-28T00:36:22;10.23;;;5.17;;
34585;SDS011;20816;50.950;11.108;2024-02-28T00:38:49;15.80;;;6.53;;
34585;SDS011;20816;50.950;11.108;2024-02-28T00:41:16;11.30;;;6.33;;
34585;SDS011;20816;50.950;11.108;2024-02-28T00:43:43;12.00;;;6.43;;
34585;SDS011;20816;50.950;11.108;2024-02-28T00:46:09;12.07;;;5.30;;
34585;SDS011;20816;50.950;11.108;2024-02-28T00:48:38;12.50;;;5.53;;
34585;SDS011;20816;50.950;11.108;2024-02-28T00:51:06;9.70;;;5.50;;
34585;SDS011;20816;50.950;11.108;2024-02-28T00:53:35;10.87;;;6.43;;
34585;SDS011;20816;50.950;11.108;2024-02-28T00:56:02;17.90;;;6.43;;
34585;SDS011;20816;50.950;11.108;2024-02-28T00:58:29;22.07;;;8.60;;
34585;SDS011;20816;50.950;11.108;2024-02-28T01:00:56;13.53;;;7.73;;
34585;SDS011;20816;50.950;11.108;2024-02-28T01:03:24;15.03;;;6.20;;
34585;SDS011;20816;50.950;11.108;2024-02-28T01:05:51;14.80;;;8.60;;
34585;SDS011;20816;50.950;11.108;2024-02-28T01:08:18;12.00;;;5.70;;
34585;SDS011;20816;50.950;11.108;2024-02-28T01:10:45;16.67;;;6.43;;
34585;SDS011;20816;50.950;11.108;2024-02-28T01:13:12;17.43;;;6.53;;
34585;SDS011;20816;50.950;11.108;2024-02-28T01:15:40;19.43;;;6.17;;
34585;SDS011;20816;50.950;11.108;2024-02-28T01:18:10;13.87;;;6.60;;
34585;SDS011;20816;50.950;11.108;2024-02-28T01:20:37;18.80;;;6.97;;
34585;SDS011;20816;50.950;11.108;2024-02-28T01:23:04;13.10;;;6.63;;
34585;SDS011;20816;50.950;11.108;2024-02-28T01:25:31;17.10;;;6.63;;
34585;SDS011;20816;50.950;11.108;2024-02-28T01:27:57;16.00;;;7.07;;
34585;SDS011;20816;50.950;11.108;2024-02-28T01:30:25;11.53;;;5.17;;
34585;SDS011;20816;50.950;11.108;2024-02-28T01:32:52;18.03;;;6.20;;
34585;SDS011;20816;50.950;11.108;2024-02-28T01:35:19;10.77;;;7.00;;
34585;SDS011;20816;50.950;11.108;2024-02-28T01:37:45;17.57;;;7.10;;
34585;SDS011;20816;50.950;11.108;2024-02-28T01:40:12;12.73;;;6.83;;
34585;SDS011;20816;50.950;11.108;2024-02-28T01:42:39;17.27;;;7.70;;
34585;SDS011;20816;50.950;11.108;2024-02-28T01:45:06;15.27;;;6.13;;
34585;SDS011;20816;50.950;11.108;2024-02-28T01:47:35;17.50;;;7.33;;
34585;SDS011;20816;50.950;11.108;2024-02-28T01:50:03;15.70;;;8.57;;
34585;SDS011;20816;50.950;11.108;2024-02-28T01:52:31;14.53;;;6.33;;
34585;SDS011;20816;50.950;11.108;2024-02-28T01:54:58;18.10;;;7.87;;
34585;SDS011;20816;50.950;11.108;2024-02-28T01:57:25;20.30;;;6.57;;
34585;SDS011;20816;50.950;11.108;2024-02-28T01:59:52;10.70;;;6.23;;
34585;SDS011;20816;50.950;11.108;2024-02-28T02:02:21;13.50;;;6.20;;
34585;SDS011;20816;50.950;11.108;2024-02-28T02:04:48;15.17;;;8.13;;
34585;SDS011;20816;50.950;11.108;2024-02-28T02:07:15;11.47;;;6.53;;
34585;SDS011;20816;50.950;11.108;2024-02-28T02:09:42;25.87;;;6.97;;
34585;SDS011;20816;50.950;11.108;2024-02-28T02:12:08;16.03;;;7.37;;
34585;SDS011;20816;50.950;11.108;2024-02-28T02:14:35;16.73;;;6.77;;
34585;SDS011;20816;50.950;11.108;2024-02-28T02:17:02;16.10;;;8.30;;
34585;SDS011;20816;50.950;11.108;2024-02-28T02:19:28;22.70;;;9.03;;
34585;SDS011;20816;50.950;11.108;2024-02-28T02:21:57;17.80;;;6.37;;
34585;SDS011;20816;50.950;11.108;2024-02-28T02:24:24;18.20;;;7.37;;
34585;SDS011;20816;50.950;11.108;2024-02-28T02:26:56;18.70;;;7.63;;
34585;SDS011;20816;50.950;11.108;2024-02-28T02:29:24;11.43;;;5.80;;
34585;SDS011;20816;50.950;11.108;2024-02-28T02:31:51;21.57;;;7.80;;
34585;SDS011;20816;50.950;11.108;2024-02-28T02:34:17;12.93;;;5.80;;
34585;SDS011;20816;50.950;11.108;2024-02-28T02:36:44;13.23;;;5.87;;
34585;SDS011;20816;50.950;11.108;2024-02-28T02:39:11;17.20;;;8.63;;
34585;SDS011;20816;50.950;11.108;2024-02-28T02:41:38;18.17;;;6.73;;
34585;SDS011;20816;50.950;11.108;2024-02-28T02:44:09;17.13;;;6.97;;
34585;SDS011;20816;50.950;11.108;2024-02-28T02:46:36;17.73;;;7.17;;
34585;SDS011;20816;50.950;11.108;2024-02-28T02:49:03;14.73;;;6.40;;
34585;SDS011;20816;50.950;11.108;2024-02-28T02:51:30;23.80;;;6.93;;
34585;SDS011;20816;50.950;11.108;2024-02-28T02:53:56;16.73;;;8.70;;
34585;SDS011;20816;50.950;11.108;2024-02-28T02:56:23;15.00;;;7.77;;
34585;SDS011;20816;50.950;11.108;2024-02-28T02:58:50;18.67;;;7.13;;
34585;SDS011;20816;50.950;11.108;2024-02-28T03:01:16;21.50;;;6.47;;
34585;SDS011;20816;50.950;11.108;2024-02-28T03:03:43;20.80;;;8.23;;
34585;SDS011;20816;50.950;11.108;2024-02-28T03:06:10;21.30;;;6.90;;
34585;SDS011;20816;50.950;11.108;2024-02-28T03:08:37;18.93;;;10.60;;
34585;SDS011;20816;50.950;11.108;2024-02-28T03:11:03;25.47;;;7.97;;
34585;SDS011;20816;50.950;11.108;2024-02-28T03:13:33;19.30;;;9.07;;
34585;SDS011;20816;50.950;11.108;2024-02-28T03:16:00;16.60;;;7.20;;
34585;SDS011;20816;50.950;11.108;2024-02-28T03:18:27;22.10;;;9.60;;
34585;SDS011;20816;50.950;11.108;2024-02-28T03:20:53;19.70;;;8.30;;
34585;SDS011;20816;50.950;11.108;2024-02-28T03:23:20;26.17;;;10.03;;
34585;SDS011;20816;50.950;11.108;2024-02-28T03:25:47;27.57;;;8.60;;
34585;SDS011;20816;50.950;11.108;2024-02-28T03:28:13;22.03;;;7.47;;
34585;SDS011;20816;50.950;11.108;2024-02-28T03:30:40;32.60;;;8.03;;
34585;SDS011;20816;50.950;11.108;2024-02-28T03:33:08;22.40;;;7.23;;
34585;SDS011;20816;50.950;11.108;2024-02-28T03:35:35;11.20;;;5.73;;
34585;SDS011;20816;50.950;11.108;2024-02-28T03:38:02;20.70;;;9.00;;
34585;SDS011;20816;50.950;11.108;2024-02-28T03:40:29;15.57;;;6.73;;
34585;SDS011;20816;50.950;11.108;2024-02-28T03:42:56;15.93;;;7.57;;
34585;SDS011;20816;50.950;11.108;2024-02-28T03:45:23;15.70;;;5.67;;
34585;SDS011;20816;50.950;11.108;2024-02-28T03:47:49;12.17;;;6.03;;
34585;SDS011;20816;50.950;11.108;2024-02-28T03:50:16;19.83;;;6.27;;
34585;SDS011;20816;50.950;11.108;2024-02-28T03:52:43;15.13;;;8.33;;
34585;SDS011;20816;50.950;11.108;2024-02-28T03:55:09;17.73;;;7.23;;
34585;SDS011;20816;50.950;11.108;2024-02-28T03:57:36;23.37;;;7.30;;
34585;SDS011;20816;50.950;11.108;2024-02-28T04:00:03;28.30;;;9.30;;
34585;SDS011;20816;50.950;11.108;2024-02-28T04:02:31;18.23;;;7.33;;
34585;SDS011;20816;50.950;11.108;2024-02-28T04:04:58;19.97;;;8.13;;
34585;SDS011;20816;50.950;11.108;2024-02-28T04:07:24;16.80;;;7.50;;
34585;SDS011;20816;50.950;11.108;2024-02-28T04:09:51;14.57;;;7.03;;
34585;SDS011;20816;50.950;11.108;2024-02-28T04:12:18;25.90;;;7.67;;
34585;SDS011;20816;50.950;11.108;2024-02-28T04:14:44;15.70;;;7.13;;
34585;SDS011;20816;50.950;11.108;2024-02-28T04:17:11;14.77;;;6.80;;
34585;SDS011;20816;50.950;11.108;2024-02-28T04:19:37;18.57;;;6.53;;
34585;SDS011;20816;50.950;11.108;2024-02-28T04:22:05;13.87;;;6.57;;
34585;SDS011;20816;50.950;11.108;2024-02-28T04:24:32;14.23;;;5.80;;
34585;SDS011;20816;50.950;11.108;2024-02-28T04:26:59;17.27;;;6.73;;
34585;SDS011;20816;50.950;11.108;2024-02-28T04:29:26;15.53;;;8.27;;
34585;SDS011;20816;50.950;11.108;2024-02-28T04:31:53;20.03;;;7.37;;
34585;SDS011;20816;50.950;11.108;2024-02-28T04:34:19;12.10;;;5.93;;
34585;SDS011;20816;50.950;11.108;2024-02-28T04:36:46;13.03;;;7.00;;
34585;SDS011;20816;50.950;11.108;2024-02-28T04:39:13;16.50;;;6.23;;
34585;SDS011;20816;50.950;11.108;2024-02-28T04:41:40;8.63;;;5.17;;
34585;SDS011;20816;50.950;11.108;2024-02-28T04:44:07;12.73;;;5.70;;
34585;SDS011;20816;50.950;11.108;2024-02-28T04:46:34;10.53;;;5.47;;
34585;SDS011;20816;50.950;11.108;2024-02-28T04:49:01;15.47;;;6.63;;
34585;SDS011;20816;50.950;11.108;2024-02-28T04:51:27;11.03;;;4.90;;
34585;SDS011;20816;50.950;11.108;2024-02-28T04:53:54;8.43;;;4.43;;
34585;SDS011;20816;50.950;11.108;2024-02-28T04:56:21;11.63;;;5.97;;
34585;SDS011;20816;50.950;11.108;2024-02-28T04:58:48;19.53;;;6.20;;
34585;SDS011;20816;50.950;11.108;2024-02-28T05:01:14;13.60;;;6.50;;
34585;SDS011;20816;50.950;11.108;2024-02-28T05:03:45;10.97;;;5.30;;
34585;SDS011;20816;50.950;11.108;2024-02-28T05:06:12;13.37;;;5.30;;
34585;SDS011;20816;50.950;11.108;2024-02-28T05:08:39;15.50;;;6.93;;
34585;SDS011;20816;50.950;11.108;2024-02-28T05:11:05;10.47;;;5.93;;
34585;SDS011;20816;50.950;11.108;2024-02-28T05:13:32;7.00;;;4.27;;
34585;SDS011;20816;50.950;11.108;2024-02-28T05:15:59;12.50;;;6.23;;
34585;SDS011;20816;50.950;11.108;2024-02-28T05:18:26;11.47;;;5.57;;
34585;SDS011;20816;50.950;11.108;2024-02-28T05:20:52;9.93;;;6.93;;
34585;SDS011;20816;50.950;11.108;2024-02-28T05:23:19;12.93;;;7.13;;
34585;SDS011;20816;50.950;11.108;2024-02-28T05:25:46;10.10;;;5.23;;
34585;SDS011;20816;50.950;11.108;2024-02-28T05:28:12;9.37;;;5.03;;
34585;SDS011;20816;50.950;11.108;2024-02-28T05:30:39;7.33;;;4.93;;
34585;SDS011;20816;50.950;11.108;2024-02-28T05:33:12;9.87;;;6.13;;
34585;SDS011;20816;50.950;11.108;2024-02-28T05:35:38;14.97;;;6.70;;
34585;SDS011;20816;50.950;11.108;2024-02-28T05:38:05;8.77;;;5.33;;
34585;SDS011;20816;50.950;11.108;2024-02-28T05:40:32;12.57;;;4.73;;
34585;SDS011;20816;50.950;11.108;2024-02-28T05:42:59;12.30;;;4.60;;
34585;SDS011;20816;50.950;11.108;2024-02-28T05:45:25;15.03;;;6.47;;
34585;SDS011;20816;50.950;11.108;2024-02-28T05:47:52;7.83;;;5.33;;
34585;SDS011;20816;50.950;11.108;2024-02-28T05:50:19;11.30;;;5.37;;
34585;SDS011;20816;50.950;11.108;2024-02-28T05:52:45;15.27;;;6.03;;
34585;SDS011;20816;50.950;11.108;2024-02-28T05:55:12;14.40;;;6.57;;
34585;SDS011;20816;50.950;11.108;2024-02-28T05:57:39;11.77;;;5.07;;
34585;SDS011;20816;50.950;11.108;2024-02-28T06:00:06;9.90;;;4.90;;
34585;SDS011;20816;50.950;11.108;2024-02-28T06:02:37;9.20;;;4.90;;
34585;SDS011;20816;50.950;11.108;2024-02-28T06:05:04;9.87;;;5.53;;
34585;SDS011;20816;50.950;11.108;2024-02-28T06:07:31;12.03;;;6.73;;
34585;SDS011;20816;50.950;11.108;2024-02-28T06:09:58;8.93;;;4.83;;
34585;SDS011;20816;50.950;11.108;2024-02-28T06:12:25;12.13;;;6.87;;
34585;SDS011;20816;50.950;11.108;2024-02-28T06:14:52;14.50;;;6.60;;
34585;SDS011;20816;50.950;11.108;2024-02-28T06:17:20;13.40;;;5.67;;
34585;SDS011;20816;50.950;11.108;2024-02-28T06:19:47;13.57;;;6.10;;
34585;SDS011;20816;50.950;11.108;2024-02-28T06:22:14;9.63;;;6.23;;
34585;SDS011;20816;50.950;11.108;2024-02-28T06:24:41;13.33;;;5.73;;
34585;SDS011;20816;50.950;11.108;2024-02-28T06:27:08;14.93;;;5.77;;
34585;SDS011;20816;50.950;11.108;2024-02-28T06:29:41;9.80;;;5.97;;
34585;SDS011;20816;50.950;11.108;2024-02-28T06:32:08;10.07;;;5.73;;
34585;SDS011;20816;50.950;11.108;2024-02-28T06:34:35;11.47;;;5.53;;
34585;SDS011;20816;50.950;11.108;2024-02-28T06:37:02;10.13;;;5.07;;
34585;SDS011;20816;50.950;11.108;2024-02-28T06:39:30;11.10;;;5.23;;
34585;SDS011;20816;50.950;11.108;2024-02-28T06:41:57;10.87;;;5.67;;
34585;SDS011;20816;50.950;11.108;2024-02-28T06:44:23;11.17;;;6.00;;
34585;SDS011;20816;50.950;11.108;2024-02-28T06:46:50;13.23;;;5.90;;
34585;SDS011;20816;50.950;11.108;2024-02-28T06:49:18;7.67;;;5.20;;
34585;SDS011;20816;50.950;11.108;2024-02-28T06:51:44;10.73;;;5.87;;
34585;SDS011;20816;50.950;11.108;2024-02-28T06:54:11;15.13;;;6.47;;
34585;SDS011;20816;50.950;11.108;2024-02-28T06:56:38;13.00;;;5.53;;
34585;SDS011;20816;50.950;11.108;2024-02-28T06:59:05;12.03;;;4.87;;
34585;SDS011;20816;50.950;11.108;2024-02-28T07:01:33;9.70;;;4.87;;
34585;SDS011;20816;50.950;11.108;2024-02-28T07:04:00;9.87;;;4.37;;
34585;SDS011;20816;50.950;11.108;2024-02-28T07:06:27;8.73;;;4.43;;
34585;SDS011;20816;50.950;11.108;2024-02-28T07:08:54;8.23;;;4.60;;
34585;SDS011;20816;50.950;11.108;2024-02-28T07:11:21;9.47;;;4.43;;
34585;SDS011;20816;50.950;11.108;2024-02-28T07:13:48;12.27;;;5.57;;
34585;SDS011;20816;50.950;11.108;2024-02-28T07:16:15;6.90;;;4.43;;
34585;SDS011;20816;50.950;11.108;2024-02-28T07:18:41;7.93;;;4.13;;
34585;SDS011;20816;50.950;11.108;2024-02-28T07:21:08;16.20;;;5.70;;
34585;SDS011;20816;50.950;11.108;2024-02-28T07:23:38;11.40;;;5.17;;
34585;SDS011;20816;50.950;11.108;2024-02-28T07:26:06;9.83;;;4.50;;
34585;SDS011;20816;50.950;11.108;2024-02-28T07:28:44;8.17;;;4.37;;
34585;SDS011;20816;50.950;11.108;2024-02-28T07:31:16;12.80;;;4.73;;
34585;SDS011;20816;50.950;11.108;2024-02-28T07:33:43;6.47;;;4.00;;
34585;SDS011;20816;50.950;11.108;2024-02-28T07:36:10;8.77;;;4.63;;
34585;SDS011;20816;50.950;11.108;2024-02-28T07:38:37;7.33;;;3.63;;
34585;SDS011;20816;50.950;11.108;2024-02-28T07:41:04;15.67;;;6.77;;
34585;SDS011;20816;50.950;11.108;2024-02-28T07:43:31;7.90;;;4.40;;
34585;SDS011;20816;50.950;11.108;2024-02-28T07:46:07;9.67;;;4.53;;
34585;SDS011;20816;50.950;11.108;2024-02-28T07:48:35;12.23;;;5.83;;
34585;SDS011;20816;50.950;11.108;2024-02-28T07:51:04;10.77;;;5.63;;
34585;SDS011;20816;50.950;11.108;2024-02-28T07:53:31;10.03;;;4.87;;
34585;SDS011;20816;50.950;11.108;2024-02-28T07:55:58;8.80;;;4.80;;
34585;SDS011;20816;50.950;11.108;2024-02-28T07:58:25;8.17;;;4.73;;
34585;SDS011;20816;50.950;11.108;2024-02-28T08:00:53;12.70;;;5.83;;
34585;SDS011;20816;50.950;11.108;2024-02-28T08:03:20;8.13;;;4.33;;
34585;SDS011;20816;50.950;11.108;2024-02-28T08:05:47;12.50;;;4.90;;
34585;SDS011;20816;50.950;11.108;2024-02-28T08:08:14;8.40;;;4.17;;
34585;SDS011;20816;50.950;11.108;2024-02-28T08:10:41;11.40;;;4.70;;
34585;SDS011;20816;50.950;11.108;2024-02-28T08:13:08;9.90;;;4.30;;
34585;SDS011;20816;50.950;11.108;2024-02-28T08:15:35;10.20;;;5.33;;
34585;SDS011;20816;50.950;11.108;2024-02-28T08:18:02;11.67;;;5.33;;
34585;SDS011;20816;50.950;11.108;2024-02-28T08:20:30;11.77;;;5.27;;
34585;SDS011;20816;50.950;11.108;2024-02-28T08:22:56;10.13;;;5.23;;
34585;SDS011;20816;50.950;11.108;2024-02-28T08:25:24;9.87;;;5.37;;
34585;SDS011;20816;50.950;11.108;2024-02-28T08:27:51;10.10;;;4.47;;
34585;SDS011;20816;50.950;11.108;2024-02-28T08:30:18;10.20;;;5.23;;
34585;SDS011;20816;50.950;11.108;2024-02-28T08:32:44;6.90;;;4.53;;
34585;SDS011;20816;50.950;11.108;2024-02-28T08:35:11;8.47;;;4.33;;
34585;SDS011;20816;50.950;11.108;2024-02-28T08:37:38;10.47;;;5.10;;
34585;SDS011;20816;50.950;11.108;2024-02-28T08:40:06;10.57;;;5.60;;
34585;SDS011;20816;50.950;11.108;2024-02-28T08:42:33;11.90;;;5.83;;
34585;SDS011;20816;50.950;11.108;2024-02-28T08:45:00;7.80;;;4.87;;
34585;SDS011;20816;50.950;11.108;2024-02-28T08:47:27;10.33;;;5.50;;
34585;SDS011;20816;50.950;11.108;2024-02-28T08:49:54;9.27;;;4.77;;
34585;SDS011;20816;50.950;11.108;2024-02-28T08:52:21;12.07;;;5.13;;
34585;SDS011;20816;50.950;11.108;2024-02-28T08:54:48;8.90;;;4.27;;
34585;SDS011;20816;50.950;11.108;2024-02-28T08:57:15;9.87;;;4.20;;
34585;SDS011;20816;50.950;11.108;2024-02-28T08:59:46;8.13;;;4.27;;
34585;SDS011;20816;50.950;11.108;2024-02-28T09:02:16;11.50;;;4.63;;
34585;SDS011;20816;50.950;11.108;2024-02-28T09:04:43;8.73;;;4.27;;
34585;SDS011;20816;50.950;11.108;2024-02-28T09:07:10;6.63;;;3.87;;
34585;SDS011;20816;50.950;11.108;2024-02-28T09:09:41;8.53;;;4.97;;
34585;SDS011;20816;50.950;11.108;2024-02-28T09:12:08;6.50;;;4.17;;
34585;SDS011;20816;50.950;11.108;2024-02-28T09:14:35;9.77;;;4.30;;
34585;SDS011;20816;50.950;11.108;2024-02-28T09:17:01;6.33;;;4.23;;
34585;SDS011;20816;50.950;11.108;2024-02-28T09:19:31;8.57;;;4.03;;
34585;SDS011;20816;50.950;11.108;2024-02-28T09:21:58;8.93;;;4.23;;
34585;SDS011;20816;50.950;11.108;2024-02-28T09:24:25;8.80;;;5.33;;
34585;SDS011;20816;50.950;11.108;2024-02-28T09:26:53;8.23;;;5.13;;
34585;SDS011;20816;50.950;11.108;2024-02-28T09:29:20;15.73;;;6.63;;
34585;SDS011;20816;50.950;11.108;2024-02-28T09:31:46;10.43;;;5.80;;
34585;SDS011;20816;50.950;11.108;2024-02-28T09:34:13;10.47;;;6.73;;
34585;SDS011;20816;50.950;11.108;2024-02-28T09:36:41;14.63;;;6.53;;
34585;SDS011;20816;50.950;11.108;2024-02-28T09:39:12;12.83;;;7.10;;
34585;SDS011;20816;50.950;11.108;2024-02-28T09:41:39;12.17;;;6.90;;
34585;SDS011;20816;50.950;11.108;2024-02-28T09:44:07;14.50;;;6.83;;
34585;SDS011;20816;50.950;11.108;2024-02-28T09:46:34;12.23;;;6.50;;
34585;SDS011;20816;50.950;11.108;2024-02-28T09:49:03;19.80;;;7.83;;
34585;SDS011;20816;50.950;11.108;2024-02-28T09:51:35;14.93;;;6.90;;
34585;SDS011;20816;50.950;11.108;2024-02-28T09:54:05;13.20;;;6.80;;
34585;SDS011;20816;50.950;11.108;2024-02-28T09:56:32;16.73;;;6.87;;
34585;SDS011;20816;50.950;11.108;2024-02-28T09:59:00;12.37;;;5.97;;
34585;SDS011;20816;50.950;11.108;2024-02-28T10:01:29;11.80;;;6.87;;
34585;SDS011;20816;50.950;11.108;2024-02-28T10:03:57;13.83;;;7.03;;
34585;SDS011;20816;50.950;11.108;2024-02-28T10:06:27;9.83;;;6.53;;
34585;SDS011;20816;50.950;11.108;2024-02-28T10:08:54;12.37;;;6.20;;
34585;SDS011;20816;50.950;11.108;2024-02-28T10:11:21;13.90;;;7.33;;
34585;SDS011;20816;50.950;11.108;2024-02-28T10:13:48;15.03;;;7.60;;
34585;SDS011;20816;50.950;11.108;2024-02-28T10:16:16;12.57;;;5.77;;
34585;SDS011;20816;50.950;11.108;2024-02-28T10:18:45;15.53;;;6.80;;
34585;SDS011;20816;50.950;11.108;2024-02-28T10:21:13;13.80;;;6.37;;
34585;SDS011;20816;50.950;11.108;2024-02-28T10:23:44;13.03;;;6.27;;
34585;SDS011;20816;50.950;11.108;2024-02-28T10:26:11;15.43;;;7.20;;
34585;SDS011;20816;50.950;11.108;2024-02-28T10:28:41;15.23;;;6.90;;
34585;SDS011;20816;50.950;11.108;2024-02-28T10:31:10;15.87;;;7.80;;
34585;SDS011;20816;50.950;11.108;2024-02-28T10:33:36;15.73;;;6.53;;
34585;SDS011;20816;50.950;11.108;2024-02-28T10:36:04;13.90;;;6.50;;
34585;SDS011;20816;50.950;11.108;2024-02-28T10:38:31;12.57;;;6.70;;
34585;SDS011;20816;50.950;11.108;2024-02-28T10:41:05;11.10;;;5.60;;
34585;SDS011;20816;50.950;11.108;2024-02-28T10:43:37;12.50;;;7.30;;
34585;SDS011;20816;50.950;11.108;2024-02-28T10:46:06;13.40;;;7.47;;
34585;SDS011;20816;50.950;11.108;2024-02-28T10:48:54;15.17;;;7.83;;
34585;SDS011;20816;50.950;11.108;2024-02-28T10:51:23;16.50;;;7.00;;
34585;SDS011;20816;50.950;11.108;2024-02-28T10:53:58;13.87;;;6.80;;
34585;SDS011;20816;50.950;11.108;2024-02-28T10:56:33;13.17;;;6.00;;
34585;SDS011;20816;50.950;11.108;2024-02-28T10:59:00;13.57;;;7.57;;
34585;SDS011;20816;50.950;11.108;2024-02-28T11:01:27;14.93;;;8.17;;
34585;SDS011;20816;50.950;11.108;2024-02-28T11:03:54;12.57;;;6.93;;
34585;SDS011;20816;50.950;11.108;2024-02-28T11:06:22;14.33;;;7.60;;
34585;SDS011;20816;50.950;11.108;2024-02-28T11:08:49;11.77;;;6.90;;
34585;SDS011;20816;50.950;11.108;2024-02-28T11:11:23;12.23;;;7.03;;
34585;SDS011;20816;50.950;11.108;2024-02-28T11:13:53;12.40;;;6.67;;
34585;SDS011;20816;50.950;11.108;2024-02-28T11:16:27;12.70;;;7.43;;
34585;SDS011;20816;50.950;11.108;2024-02-28T11:18:54;13.23;;;6.57;;
34585;SDS011;20816;50.950;11.108;2024-02-28T11:21:27;17.73;;;7.30;;
34585;SDS011;20816;50.950;11.108;2024-02-28T11:24:01;12.50;;;6.70;;
34585;SDS011;20816;50.950;11.108;2024-02-28T11:26:28;14.03;;;6.40;;
34585;SDS011;20816;50.950;11.108;2024-02-28T11:28:55;12.07;;;6.63;;
34585;SDS011;20816;50.950;11.108;2024-02-28T11:31:22;12.13;;;6.53;;
34585;SDS011;20816;50.950;11.108;2024-02-28T11:33:49;10.47;;;5.87;;
34585;SDS011;20816;50.950;11.108;2024-02-28T11:36:16;13.27;;;7.17;;
34585;SDS011;20816;50.950;11.108;2024-02-28T11:38:43;11.30;;;6.03;;
34585;SDS011;20816;50.950;11.108;2024-02-28T11:41:10;12.07;;;6.17;;
34585;SDS011;20816;50.950;11.108;2024-02-28T11:43:37;12.90;;;5.77;;
34585;SDS011;20816;50.950;11.108;2024-02-28T11:46:17;7.97;;;4.73;;
34585;SDS011;20816;50.950;11.108;2024-02-28T11:48:45;12.17;;;5.50;;
34585;SDS011;20816;50.950;11.108;2024-02-28T11:51:12;14.33;;;7.23;;
34585;SDS011;20816;50.950;11.108;2024-02-28T11:53:39;13.80;;;4.90;;
34585;SDS011;20816;50.950;11.108;2024-02-28T11:56:06;10.33;;;5.27;;
34585;SDS011;20816;50.950;11.108;2024-02-28T11:58:34;11.77;;;4.93;;
34585;SDS011;20816;50.950;11.108;2024-02-28T12:01:01;11.43;;;5.00;;
34585;SDS011;20816;50.950;11.108;2024-02-28T12:03:28;10.47;;;4.83;;
34585;SDS011;20816;50.950;11.108;2024-02-28T12:05:55;8.23;;;5.47;;
34585;SDS011;20816;50.950;11.108;2024-02-28T12:08:22;8.27;;;4.13;;
34585;SDS011;20816;50.950;11.108;2024-02-28T12:10:53;8.17;;;4.10;;
34585;SDS011;20816;50.950;11.108;2024-02-28T12:13:20;5.73;;;3.70;;
34585;SDS011;20816;50.950;11.108;2024-02-28T12:15:49;8.57;;;3.37;;
34585;SDS011;20816;50.950;11.108;2024-02-28T12:18:16;5.95;;;3.33;;
34585;SDS011;20816;50.950;11.108;2024-02-28T12:20:43;5.90;;;3.10;;
34585;SDS011;20816;50.950;11.108;2024-02-28T12:23:10;6.57;;;3.30;;
34585;SDS011;20816;50.950;11.108;2024-02-28T12:25:37;7.20;;;3.20;;
34585;SDS011;20816;50.950;11.108;2024-02-28T12:28:04;8.30;;;3.67;;
34585;SDS011;20816;50.950;11.108;2024-02-28T12:30:39;8.00;;;3.77;;
34585;SDS011;20816;50.950;11.108;2024-02-28T12:33:10;9.53;;;3.30;;
34585;SDS011;20816;50.950;11.108;2024-02-28T12:35:40;7.63;;;2.97;;
34585;SDS011;20816;50.950;11.108;2024-02-28T12:38:08;8.83;;;4.03;;
34585;SDS011;20816;50.950;11.108;2024-02-28T12:40:35;6.57;;;3.73;;
34585;SDS011;20816;50.950;11.108;2024-02-28T12:43:02;7.50;;;4.10;;
34585;SDS011;20816;50.950;11.108;2024-02-28T12:45:29;9.03;;;4.33;;
34585;SDS011;20816;50.950;11.108;2024-02-28T12:47:58;5.87;;;3.80;;
34585;SDS011;20816;50.950;11.108;2024-02-28T12:50:25;9.93;;;5.23;;
34585;SDS011;20816;50.950;11.108;2024-02-28T12:52:52;8.17;;;4.57;;
34585;SDS011;20816;50.950;11.108;2024-02-28T12:55:20;9.20;;;5.50;;
34585;SDS011;20816;50.950;11.108;2024-02-28T12:57:49;10.03;;;4.70;;
34585;SDS011;20816;50.950;11.108;2024-02-28T13:00:17;9.03;;;4.53;;
34585;SDS011;20816;50.950;11.108;2024-02-28T13:02:45;8.87;;;4.63;;
34585;SDS011;20816;50.950;11.108;2024-02-28T13:05:12;7.80;;;4.10;;
34585;SDS011;20816;50.950;11.108;2024-02-28T13:07:41;7.87;;;3.90;;
34585;SDS011;20816;50.950;11.108;2024-02-28T13:10:08;8.17;;;4.03;;
34585;SDS011;20816;50.950;11.108;2024-02-28T13:12:37;11.00;;;4.17;;
34585;SDS011;20816;50.950;11.108;2024-02-28T13:15:05;10.03;;;4.73;;
34585;SDS011;20816;50.950;11.108;2024-02-28T13:17:32;5.10;;;3.57;;
34585;SDS011;20816;50.950;11.108;2024-02-28T13:19:59;7.47;;;3.43;;
34585;SDS011;20816;50.950;11.108;2024-02-28T13:22:26;8.00;;;4.07;;
34585;SDS011;20816;50.950;11.108;2024-02-28T13:24:53;7.77;;;4.17;;
34585;SDS011;20816;50.950;11.108;2024-02-28T13:27:21;8.20;;;4.33;;
34585;SDS011;20816;50.950;11.108;2024-02-28T13:29:48;9.67;;;3.87;;
34585;SDS011;20816;50.950;11.108;2024-02-28T13:32:15;8.17;;;4.63;;
34585;SDS011;20816;50.950;11.108;2024-02-28T13:34:42;8.57;;;4.03;;
34585;SDS011;20816;50.950;11.108;2024-02-28T13:37:12;10.30;;;3.73;;
34585;SDS011;20816;50.950;11.108;2024-02-28T13:39:39;6.40;;;3.87;;
34585;SDS011;20816;50.950;11.108;2024-02-28T13:42:06;7.40;;;4.63;;
34585;SDS011;20816;50.950;11.108;2024-02-28T13:44:35;7.10;;;3.70;;
34585;SDS011;20816;50.950;11.108;2024-02-28T13:47:07;10.13;;;4.80;;
34585;SDS011;20816;50.950;11.108;2024-02-28T13:49:34;4.80;;;2.33;;
34585;SDS011;20816;50.950;11.108;2024-02-28T13:52:00;9.40;;;4.43;;
34585;SDS011;20816;50.950;11.108;2024-02-28T13:54:28;10.00;;;4.27;;
34585;SDS011;20816;50.950;11.108;2024-02-28T13:56:55;7.80;;;3.73;;
34585;SDS011;20816;50.950;11.108;2024-02-28T13:59:21;9.83;;;4.40;;
34585;SDS011;20816;50.950;11.108;2024-02-28T14:01:48;9.30;;;3.87;;
34585;SDS011;20816;50.950;11.108;2024-02-28T14:04:16;7.33;;;4.07;;
34585;SDS011;20816;50.950;11.108;2024-02-28T14:06:43;10.23;;;4.57;;
34585;SDS011;20816;50.950;11.108;2024-02-28T14:09:11;5.77;;;2.43;;
34585;SDS011;20816;50.950;11.108;2024-02-28T14:11:38;8.67;;;3.83;;
34585;SDS011;20816;50.950;11.108;2024-02-28T14:14:05;6.47;;;4.00;;
34585;SDS011;20816;50.950;11.108;2024-02-28T14:16:32;6.10;;;3.17;;
34585;SDS011;20816;50.950;11.108;2024-02-28T14:18:58;5.57;;;3.40;;
34585;SDS011;20816;50.950;11.108;2024-02-28T14:21:26;6.57;;;3.27;;
34585;SDS011;20816;50.950;11.108;2024-02-28T14:23:53;7.50;;;3.90;;
34585;SDS011;20816;50.950;11.108;2024-02-28T14:26:20;6.60;;;2.33;;
34585;SDS011;20816;50.950;11.108;2024-02-28T14:28:50;4.67;;;2.47;;